sensor_id;sensor_type;location;lat;lon;timestamp;pressure;altitude;pressure_sealevel;temperature;humidity
7474;BME280;3778;42.572;23.426;2023-02-13T00:01:54;95712.38;;;-146.70;74.04
7474;BME280;3778;42.572;23.426;2023-02-13T00:04:21;95731.13;;;-146.70;74.09
7474;BME280;3778;42.572;23.426;2023-02-13T00:06:47;95701.94;;;-146.70;74.16
7474;BME280;3778;42.572;23.426;2023-02-13T00:09:14;95714.44;;;-146.70;74.48
7474;BME280;3778;42.572;23.426;2023-02-13T00:11:42;95704.03;;;-146.70;74.12
7474;BME280;3778;42.572;23.426;2023-02-13T00:14:09;95708.19;;;-146.70;73.94
7474;BME280;3778;42.572;23.426;2023-02-13T00:16:35;95691.53;;;-146.70;73.50
7474;BME280;3778;42.572;23.426;2023-02-13T00:19:02;95714.44;;;-146.70;73.19
7474;BME280;3778;42.572;23.426;2023-02-13T00:21:29;95743.63;;;-146.70;73.26
7474;BME280;3778;42.572;23.426;2023-02-13T00:23:56;95710.28;;;-146.70;73.22
7474;BME280;3778;42.572;23.426;2023-02-13T00:26:22;95758.22;;;-146.70;73.38
7474;BME280;3778;42.572;23.426;2023-02-13T00:28:50;95704.03;;;-146.70;73.33
7474;BME280;3778;42.572;23.426;2023-02-13T00:31:18;95714.44;;;-146.70;73.30
7474;BME280;3778;42.572;23.426;2023-02-13T00:33:45;95704.03;;;-146.70;72.93
7474;BME280;3778;42.572;23.426;2023-02-13T00:36:14;95662.34;;;-146.70;72.75
7474;BME280;3778;42.572;23.426;2023-02-13T00:38:41;95699.84;;;-146.70;72.62
7474;BME280;3778;42.572;23.426;2023-02-13T00:41:09;95731.13;;;-146.70;72.81
7474;BME280;3778;42.572;23.426;2023-02-13T00:43:35;95726.97;;;-146.70;73.14
7474;BME280;3778;42.572;23.426;2023-02-13T00:46:04;95729.03;;;-146.70;73.18
7474;BME280;3778;42.572;23.426;2023-02-13T00:48:32;95720.72;;;-146.70;73.55
7474;BME280;3778;42.572;23.426;2023-02-13T00:50:59;95737.38;;;-146.70;73.01
7474;BME280;3778;42.572;23.426;2023-02-13T00:53:26;95689.44;;;-146.70;72.80
7474;BME280;3778;42.572;23.426;2023-02-13T00:55:54;95712.38;;;-146.70;72.25
7474;BME280;3778;42.572;23.426;2023-02-13T00:58:21;95720.72;;;-146.70;72.36
7474;BME280;3778;42.572;23.426;2023-02-13T01:00:48;95683.19;;;-146.70;72.39
7474;BME280;3778;42.572;23.426;2023-02-13T01:03:18;95672.75;;;-146.70;72.30
7474;BME280;3778;42.572;23.426;2023-02-13T01:05:45;95733.22;;;-146.70;72.41
7474;BME280;3778;42.572;23.426;2023-02-13T01:08:14;95687.34;;;-146.70;72.64
7474;BME280;3778;42.572;23.426;2023-02-13T01:10:42;95743.63;;;-146.70;72.37
7474;BME280;3778;42.572;23.426;2023-02-13T01:13:10;95708.19;;;-146.70;72.50
7474;BME280;3778;42.572;23.426;2023-02-13T01:15:39;95718.63;;;-146.70;72.43
7474;BME280;3778;42.572;23.426;2023-02-13T01:18:06;95672.75;;;-146.70;72.20
7474;BME280;3778;42.572;23.426;2023-02-13T01:20:34;95716.53;;;-146.70;72.14
7474;BME280;3778;42.572;23.426;2023-02-13T01:23:01;95710.28;;;-146.70;71.91
7474;BME280;3778;42.572;23.426;2023-02-13T01:25:27;95720.72;;;-146.70;71.83
7474;BME280;3778;42.572;23.426;2023-02-13T01:27:54;95712.38;;;-146.70;71.51
7474;BME280;3778;42.572;23.426;2023-02-13T01:30:21;95712.38;;;-146.70;71.83
7474;BME280;3778;42.572;23.426;2023-02-13T01:32:48;95668.59;;;-146.70;71.47
7474;BME280;3778;42.572;23.426;2023-02-13T01:35:15;95718.63;;;-146.70;71.52
7474;BME280;3778;42.572;23.426;2023-02-13T01:37:43;95699.84;;;-146.70;71.64
7474;BME280;3778;42.572;23.426;2023-02-13T01:40:12;95670.69;;;-146.70;71.93
7474;BME280;3778;42.572;23.426;2023-02-13T01:42:39;95691.53;;;-146.70;71.90
7474;BME280;3778;42.572;23.426;2023-02-13T01:45:18;95737.38;;;-146.70;71.81
7474;BME280;3778;42.572;23.426;2023-02-13T01:47:49;95714.44;;;-146.70;72.03
7474;BME280;3778;42.572;23.426;2023-02-13T01:50:20;95714.44;;;-146.70;72.52
7474;BME280;3778;42.572;23.426;2023-02-13T01:52:52;95672.75;;;-146.70;72.00
7474;BME280;3778;42.572;23.426;2023-02-13T01:55:21;95687.34;;;-146.70;71.85
7474;BME280;3778;42.572;23.426;2023-02-13T01:57:53;95722.78;;;-146.70;72.31
7474;BME280;3778;42.572;23.426;2023-02-13T02:00:23;95739.47;;;-146.70;72.31
7474;BME280;3778;42.572;23.426;2023-02-13T02:02:52;95726.97;;;-146.70;72.20
7474;BME280;3778;42.572;23.426;2023-02-13T02:05:22;95679.00;;;-146.70;72.44
7474;BME280;3778;42.572;23.426;2023-02-13T02:07:52;95689.44;;;-146.70;72.78
7474;BME280;3778;42.572;23.426;2023-02-13T02:10:20;95701.94;;;-146.70;73.00
7474;BME280;3778;42.572;23.426;2023-02-13T02:12:51;95772.81;;;-146.70;73.08
7474;BME280;3778;42.572;23.426;2023-02-13T02:15:20;95724.88;;;-146.70;73.51
7474;BME280;3778;42.572;23.426;2023-02-13T02:17:47;95714.44;;;-146.70;73.60
7474;BME280;3778;42.572;23.426;2023-02-13T02:20:23;95708.19;;;-146.70;73.58
7474;BME280;3778;42.572;23.426;2023-02-13T02:23:13;95716.53;;;-146.70;73.89
7474;BME280;3778;42.572;23.426;2023-02-13T02:26:00;95735.28;;;-146.70;74.30
7474;BME280;3778;42.572;23.426;2023-02-13T02:34:32;95687.34;;;-146.70;74.65
7474;BME280;3778;42.572;23.426;2023-02-13T02:37:11;95716.53;;;-146.70;75.09
7474;BME280;3778;42.572;23.426;2023-02-13T02:39:49;95691.53;;;-146.70;75.16
7474;BME280;3778;42.572;23.426;2023-02-13T02:42:34;95716.53;;;-146.70;74.87
7474;BME280;3778;42.572;23.426;2023-02-13T02:45:09;95762.41;;;-146.70;75.05
7474;BME280;3778;42.572;23.426;2023-02-13T02:47:41;95685.28;;;-146.70;75.04
7474;BME280;3778;42.572;23.426;2023-02-13T02:50:39;95699.84;;;-146.70;74.47
7474;BME280;3778;42.572;23.426;2023-02-13T02:53:17;95739.47;;;-146.70;74.46
7474;BME280;3778;42.572;23.426;2023-02-13T02:55:53;95716.53;;;-146.70;74.41
7474;BME280;3778;42.572;23.426;2023-02-13T02:58:24;95716.53;;;-146.70;74.36
7474;BME280;3778;42.572;23.426;2023-02-13T03:01:13;95718.63;;;-146.70;73.97
7474;BME280;3778;42.572;23.426;2023-02-13T03:04:15;95749.88;;;-146.70;73.95
7474;BME280;3778;42.572;23.426;2023-02-13T03:07:04;95687.34;;;-146.70;73.87
7474;BME280;3778;42.572;23.426;2023-02-13T03:09:36;95710.28;;;-146.70;73.90
7474;BME280;3778;42.572;23.426;2023-02-13T03:12:28;95670.69;;;-146.70;73.49
7474;BME280;3778;42.572;23.426;2023-02-13T03:15:13;95745.72;;;-146.70;73.63
7474;BME280;3778;42.572;23.426;2023-02-13T03:17:40;95731.13;;;-146.70;73.63
7474;BME280;3778;42.572;23.426;2023-02-13T03:20:32;95726.97;;;-146.70;73.14
7474;BME280;3778;42.572;23.426;2023-02-13T03:23:24;95731.13;;;-146.70;73.14
7474;BME280;3778;42.572;23.426;2023-02-13T03:26:06;95743.63;;;-146.70;72.79
7474;BME280;3778;42.572;23.426;2023-02-13T03:28:42;95716.53;;;-146.70;72.69
7474;BME280;3778;42.572;23.426;2023-02-13T03:31:34;95724.88;;;-146.70;72.18
7474;BME280;3778;42.572;23.426;2023-02-13T03:34:05;95716.53;;;-146.70;72.13
7474;BME280;3778;42.572;23.426;2023-02-13T03:36:44;95716.53;;;-146.70;71.95
7474;BME280;3778;42.572;23.426;2023-02-13T03:39:37;95716.53;;;-146.70;72.05
7474;BME280;3778;42.572;23.426;2023-02-13T03:42:10;95745.72;;;-146.70;71.98
7474;BME280;3778;42.572;23.426;2023-02-13T03:44:43;95768.66;;;-146.70;72.06
7474;BME280;3778;42.572;23.426;2023-02-13T03:47:13;95731.13;;;-146.70;72.21
7474;BME280;3778;42.572;23.426;2023-02-13T03:49:42;95706.13;;;-146.70;71.96
7474;BME280;3778;42.572;23.426;2023-02-13T03:52:33;95720.72;;;-146.70;71.92
7474;BME280;3778;42.572;23.426;2023-02-13T03:55:05;95756.13;;;-146.70;71.90
7474;BME280;3778;42.572;23.426;2023-02-13T03:57:54;95676.94;;;-146.70;71.48
7474;BME280;3778;42.572;23.426;2023-02-13T04:00:43;95751.97;;;-146.70;71.38
7474;BME280;3778;42.572;23.426;2023-02-13T04:03:14;95733.22;;;-146.70;71.62
7474;BME280;3778;42.572;23.426;2023-02-13T04:05:46;95729.03;;;-146.70;71.35
7474;BME280;3778;42.572;23.426;2023-02-13T04:08:15;95754.06;;;-146.70;71.24
7474;BME280;3778;42.572;23.426;2023-02-13T04:10:52;95777.00;;;-146.70;71.09
7474;BME280;3778;42.572;23.426;2023-02-13T04:13:25;95660.25;;;-146.70;71.33
7474;BME280;3778;42.572;23.426;2023-02-13T04:15:56;95716.53;;;-146.70;71.28
7474;BME280;3778;42.572;23.426;2023-02-13T04:18:27;95724.88;;;-146.70;71.40
7474;BME280;3778;42.572;23.426;2023-02-13T04:20:55;95766.56;;;-146.70;71.39
7474;BME280;3778;42.572;23.426;2023-02-13T04:23:21;95785.31;;;-146.70;71.71
7474;BME280;3778;42.572;23.426;2023-02-13T04:25:52;95779.06;;;-146.70;71.76
7474;BME280;3778;42.572;23.426;2023-02-13T04:28:19;95737.38;;;-146.70;72.33
7474;BME280;3778;42.572;23.426;2023-02-13T04:30:46;95697.78;;;-146.70;71.93
7474;BME280;3778;42.572;23.426;2023-02-13T04:33:14;95710.28;;;-146.70;71.76
7474;BME280;3778;42.572;23.426;2023-02-13T04:35:40;95774.91;;;-146.70;72.25
7474;BME280;3778;42.572;23.426;2023-02-13T04:38:07;95708.19;;;-146.70;72.26
7474;BME280;3778;42.572;23.426;2023-02-13T04:40:34;95739.47;;;-146.70;72.25
7474;BME280;3778;42.572;23.426;2023-02-13T04:43:02;95758.22;;;-146.70;71.98
7474;BME280;3778;42.572;23.426;2023-02-13T04:45:29;95733.22;;;-146.70;72.15
7474;BME280;3778;42.572;23.426;2023-02-13T04:47:56;95724.88;;;-146.70;71.59
7474;BME280;3778;42.572;23.426;2023-02-13T04:50:23;95737.38;;;-146.70;71.43
7474;BME280;3778;42.572;23.426;2023-02-13T04:52:52;95712.38;;;-146.70;71.90
7474;BME280;3778;42.572;23.426;2023-02-13T04:55:20;95758.22;;;-146.70;72.18
7474;BME280;3778;42.572;23.426;2023-02-13T04:57:47;95762.41;;;-146.70;72.03
7474;BME280;3778;42.572;23.426;2023-02-13T05:00:15;95739.47;;;-146.70;71.62
7474;BME280;3778;42.572;23.426;2023-02-13T05:02:42;95749.88;;;-146.70;71.21
7474;BME280;3778;42.572;23.426;2023-02-13T05:05:09;95729.03;;;-146.70;71.64
7474;BME280;3778;42.572;23.426;2023-02-13T05:07:35;95749.88;;;-146.70;72.51
7474;BME280;3778;42.572;23.426;2023-02-13T05:10:03;95754.06;;;-146.70;71.95
7474;BME280;3778;42.572;23.426;2023-02-13T05:12:29;95749.88;;;-146.70;71.51
7474;BME280;3778;42.572;23.426;2023-02-13T05:14:56;95768.66;;;-146.70;71.63
7474;BME280;3778;42.572;23.426;2023-02-13T05:17:24;95783.25;;;-146.70;71.36
7474;BME280;3778;42.572;23.426;2023-02-13T05:19:51;95729.03;;;-146.70;70.72
7474;BME280;3778;42.572;23.426;2023-02-13T05:22:17;95747.81;;;-146.70;70.65
7474;BME280;3778;42.572;23.426;2023-02-13T05:25:02;95774.91;;;-146.70;71.82
7474;BME280;3778;42.572;23.426;2023-02-13T05:27:29;95766.56;;;-146.70;71.76
7474;BME280;3778;42.572;23.426;2023-02-13T05:29:55;95779.06;;;-146.70;72.64
7474;BME280;3778;42.572;23.426;2023-02-13T05:32:23;95754.06;;;-146.70;72.28
7474;BME280;3778;42.572;23.426;2023-02-13T05:34:50;95726.97;;;-146.70;72.39
7474;BME280;3778;42.572;23.426;2023-02-13T05:37:17;95739.47;;;-146.70;72.86
7474;BME280;3778;42.572;23.426;2023-02-13T05:39:44;95795.75;;;-146.70;72.20
7474;BME280;3778;42.572;23.426;2023-02-13T05:42:10;95766.56;;;-146.70;72.06
7474;BME280;3778;42.572;23.426;2023-02-13T05:44:37;95743.63;;;-146.70;72.49
7474;BME280;3778;42.572;23.426;2023-02-13T05:47:04;95731.13;;;-146.70;72.63
7474;BME280;3778;42.572;23.426;2023-02-13T05:49:32;95716.53;;;-146.70;72.46
7474;BME280;3778;42.572;23.426;2023-02-13T05:51:58;95749.88;;;-146.70;72.63
7474;BME280;3778;42.572;23.426;2023-02-13T05:54:25;95720.72;;;-146.70;72.48
7474;BME280;3778;42.572;23.426;2023-02-13T05:56:52;95733.22;;;-146.70;72.88
7474;BME280;3778;42.572;23.426;2023-02-13T05:59:18;95758.22;;;-146.70;72.22
7474;BME280;3778;42.572;23.426;2023-02-13T06:01:45;95743.63;;;-146.70;71.72
7474;BME280;3778;42.572;23.426;2023-02-13T06:04:12;95689.44;;;-146.70;71.55
7474;BME280;3778;42.572;23.426;2023-02-13T06:06:40;95726.97;;;-146.70;71.46
7474;BME280;3778;42.572;23.426;2023-02-13T06:09:07;95735.28;;;-146.70;71.33
7474;BME280;3778;42.572;23.426;2023-02-13T06:11:34;95706.13;;;-146.70;71.05
7474;BME280;3778;42.572;23.426;2023-02-13T06:14:01;95712.38;;;-146.70;70.23
7474;BME280;3778;42.572;23.426;2023-02-13T06:16:27;95720.72;;;-146.70;70.09
7474;BME280;3778;42.572;23.426;2023-02-13T06:18:55;95693.59;;;-146.70;70.06
7474;BME280;3778;42.572;23.426;2023-02-13T06:21:22;95733.22;;;-146.70;70.61
7474;BME280;3778;42.572;23.426;2023-02-13T06:23:50;95729.03;;;-146.70;70.32
7474;BME280;3778;42.572;23.426;2023-02-13T06:26:17;95762.41;;;-146.70;70.05
7474;BME280;3778;42.572;23.426;2023-02-13T06:28:44;95779.06;;;-146.70;70.20
7474;BME280;3778;42.572;23.426;2023-02-13T06:31:11;95756.13;;;-146.70;70.62
7474;BME280;3778;42.572;23.426;2023-02-13T06:33:38;95718.63;;;-146.70;70.75
7474;BME280;3778;42.572;23.426;2023-02-13T06:36:05;95737.38;;;-146.70;70.25
7474;BME280;3778;42.572;23.426;2023-02-13T06:38:32;95758.22;;;-146.70;70.44
7474;BME280;3778;42.572;23.426;2023-02-13T06:41:00;95729.03;;;-146.70;69.96
7474;BME280;3778;42.572;23.426;2023-02-13T06:43:27;95737.38;;;-146.70;70.13
7474;BME280;3778;42.572;23.426;2023-02-13T06:45:54;95714.44;;;-146.70;70.05
7474;BME280;3778;42.572;23.426;2023-02-13T06:48:21;95758.22;;;-146.70;69.98
7474;BME280;3778;42.572;23.426;2023-02-13T06:50:48;95724.88;;;-146.70;69.60
7474;BME280;3778;42.572;23.426;2023-02-13T06:53:16;95733.22;;;-146.70;69.90
7474;BME280;3778;42.572;23.426;2023-02-13T06:55:44;95679.00;;;-146.70;69.85
7474;BME280;3778;42.572;23.426;2023-02-13T06:58:12;95729.03;;;-146.70;69.52
7474;BME280;3778;42.572;23.426;2023-02-13T07:00:38;95716.53;;;-146.70;69.93
7474;BME280;3778;42.572;23.426;2023-02-13T07:03:05;95729.03;;;-146.70;69.70
7474;BME280;3778;42.572;23.426;2023-02-13T07:05:32;95729.03;;;-146.70;69.83
7474;BME280;3778;42.572;23.426;2023-02-13T07:07:59;95774.91;;;-146.70;69.40
7474;BME280;3778;42.572;23.426;2023-02-13T07:10:25;95664.44;;;-146.70;69.36
7474;BME280;3778;42.572;23.426;2023-02-13T07:12:52;95687.34;;;-146.70;69.62
7474;BME280;3778;42.572;23.426;2023-02-13T07:15:20;95716.53;;;-146.70;69.72
7474;BME280;3778;42.572;23.426;2023-02-13T07:17:47;95693.59;;;-146.70;69.21
7474;BME280;3778;42.572;23.426;2023-02-13T07:20:14;95701.94;;;-146.70;69.44
7474;BME280;3778;42.572;23.426;2023-02-13T07:22:40;95712.38;;;-146.70;69.33
7474;BME280;3778;42.572;23.426;2023-02-13T07:25:07;95716.53;;;-146.70;69.48
7474;BME280;3778;42.572;23.426;2023-02-13T07:27:34;95701.94;;;-146.70;69.77
7474;BME280;3778;42.572;23.426;2023-02-13T07:30:00;95656.09;;;-146.70;69.85
7474;BME280;3778;42.572;23.426;2023-02-13T07:32:29;95712.38;;;-146.70;69.29
7474;BME280;3778;42.572;23.426;2023-02-13T07:34:55;95693.59;;;-146.70;69.16
7474;BME280;3778;42.572;23.426;2023-02-13T07:37:22;95710.28;;;-146.70;69.01
7474;BME280;3778;42.572;23.426;2023-02-13T07:39:49;95687.34;;;-146.70;68.96
7474;BME280;3778;42.572;23.426;2023-02-13T07:42:16;95674.84;;;-146.70;68.63
7474;BME280;3778;42.572;23.426;2023-02-13T07:44:43;95685.28;;;-146.70;68.40
7474;BME280;3778;42.572;23.426;2023-02-13T07:47:09;95645.66;;;-146.70;68.39
7474;BME280;3778;42.572;23.426;2023-02-13T07:49:38;95691.53;;;-146.70;68.85
7474;BME280;3778;42.572;23.426;2023-02-13T07:52:04;95668.59;;;-146.70;69.18
7474;BME280;3778;42.572;23.426;2023-02-13T07:54:31;95687.34;;;-146.70;69.13
7474;BME280;3778;42.572;23.426;2023-02-13T07:56:58;95633.16;;;-146.70;67.82
7474;BME280;3778;42.572;23.426;2023-02-13T07:59:24;95654.00;;;-146.70;67.88
7474;BME280;3778;42.572;23.426;2023-02-13T08:01:51;95649.84;;;-146.70;68.43
7474;BME280;3778;42.572;23.426;2023-02-13T08:04:18;95641.50;;;-146.70;68.04
7474;BME280;3778;42.572;23.426;2023-02-13T08:06:46;95656.09;;;-146.70;67.79
7474;BME280;3778;42.572;23.426;2023-02-13T08:09:17;95641.50;;;-146.70;67.88
7474;BME280;3778;42.572;23.426;2023-02-13T08:12:05;95603.97;;;-146.70;67.75
7474;BME280;3778;42.572;23.426;2023-02-13T08:14:32;95751.97;;;-146.70;67.21
7474;BME280;3778;42.572;23.426;2023-02-13T08:16:59;95618.56;;;-146.70;67.25
7474;BME280;3778;42.572;23.426;2023-02-13T08:19:26;95606.06;;;-146.70;68.33
7474;BME280;3778;42.572;23.426;2023-02-13T08:21:54;95608.16;;;-146.70;69.03
7474;BME280;3778;42.572;23.426;2023-02-13T08:24:21;95587.31;;;-146.70;68.46
7474;BME280;3778;42.572;23.426;2023-02-13T08:26:48;95608.16;;;-146.70;68.36
7474;BME280;3778;42.572;23.426;2023-02-13T08:29:15;95603.97;;;-146.70;68.55
7474;BME280;3778;42.572;23.426;2023-02-13T08:31:41;95612.31;;;-146.70;69.46
7474;BME280;3778;42.572;23.426;2023-02-13T08:34:08;95581.03;;;-146.70;69.80
7474;BME280;3778;42.572;23.426;2023-02-13T08:36:35;95564.38;;;-146.70;69.00
7474;BME280;3778;42.572;23.426;2023-02-13T08:39:04;95549.78;;;-146.70;69.18
7474;BME280;3778;42.572;23.426;2023-02-13T08:41:30;95547.69;;;-146.70;69.16
7474;BME280;3778;42.572;23.426;2023-02-13T08:43:57;95541.44;;;-146.70;68.58
7474;BME280;3778;42.572;23.426;2023-02-13T08:46:24;95560.19;;;-146.70;69.07
7474;BME280;3778;42.572;23.426;2023-02-13T08:48:50;95533.09;;;-146.70;69.34
7474;BME280;3778;42.572;23.426;2023-02-13T08:51:17;95497.66;;;-146.70;68.80
7474;BME280;3778;42.572;23.426;2023-02-13T08:53:44;95520.59;;;-146.70;68.36
7474;BME280;3778;42.572;23.426;2023-02-13T08:56:12;95535.19;;;-146.70;68.51
7474;BME280;3778;42.572;23.426;2023-02-13T08:58:38;95533.09;;;-146.70;68.32
7474;BME280;3778;42.572;23.426;2023-02-13T09:01:06;95524.75;;;-146.70;68.08
7474;BME280;3778;42.572;23.426;2023-02-13T09:03:34;95506.00;;;-146.70;68.19
7474;BME280;3778;42.572;23.426;2023-02-13T09:06:01;95558.13;;;-146.70;67.92
7474;BME280;3778;42.572;23.426;2023-02-13T09:08:28;95553.94;;;-146.70;68.16
7474;BME280;3778;42.572;23.426;2023-02-13T09:10:56;95533.09;;;-146.70;69.00
7474;BME280;3778;42.572;23.426;2023-02-13T09:13:25;95533.09;;;-146.70;68.88
7474;BME280;3778;42.572;23.426;2023-02-13T09:15:52;95524.75;;;-146.70;68.44
7474;BME280;3778;42.572;23.426;2023-02-13T09:18:19;95495.59;;;-146.70;68.42
7474;BME280;3778;42.572;23.426;2023-02-13T09:20:45;95543.53;;;-146.70;67.88
7474;BME280;3778;42.572;23.426;2023-02-13T09:23:12;95560.19;;;-146.70;68.26
7474;BME280;3778;42.572;23.426;2023-02-13T09:25:39;95522.69;;;-146.70;68.10
7474;BME280;3778;42.572;23.426;2023-02-13T09:28:06;95458.06;;;-146.70;68.03
7474;BME280;3778;42.572;23.426;2023-02-13T09:30:34;95528.94;;;-146.70;67.96
7474;BME280;3778;42.572;23.426;2023-02-13T09:33:00;95499.75;;;-146.70;67.36
7474;BME280;3778;42.572;23.426;2023-02-13T09:35:27;95512.25;;;-146.70;66.62
7474;BME280;3778;42.572;23.426;2023-02-13T09:37:54;95537.28;;;-146.70;66.51
7474;BME280;3778;42.572;23.426;2023-02-13T09:40:25;95524.75;;;-146.70;66.67
7474;BME280;3778;42.572;23.426;2023-02-13T09:43:00;95495.59;;;-146.70;66.87
7474;BME280;3778;42.572;23.426;2023-02-13T09:45:28;95470.56;;;-146.70;67.18
7474;BME280;3778;42.572;23.426;2023-02-13T09:47:56;95541.44;;;-146.70;66.56
7474;BME280;3778;42.572;23.426;2023-02-13T09:50:25;95522.69;;;-146.70;66.36
7474;BME280;3778;42.572;23.426;2023-02-13T09:52:54;95501.84;;;-146.70;65.39
7474;BME280;3778;42.572;23.426;2023-02-13T09:55:25;95518.50;;;-146.70;65.82
7474;BME280;3778;42.572;23.426;2023-02-13T09:57:57;95491.41;;;-146.70;66.01
7474;BME280;3778;42.572;23.426;2023-02-13T10:00:31;95433.06;;;-146.70;65.53
7474;BME280;3778;42.572;23.426;2023-02-13T10:03:16;95478.91;;;-146.70;64.44
7474;BME280;3778;42.572;23.426;2023-02-13T10:05:55;95485.16;;;-146.70;64.46
7474;BME280;3778;42.572;23.426;2023-02-13T10:08:36;95466.41;;;-146.70;64.65
7474;BME280;3778;42.572;23.426;2023-02-13T10:11:13;95470.56;;;-146.70;64.94
7474;BME280;3778;42.572;23.426;2023-02-13T10:13:58;95466.41;;;-146.70;64.60
7474;BME280;3778;42.572;23.426;2023-02-13T10:16:29;95451.81;;;-146.70;65.40
7474;BME280;3778;42.572;23.426;2023-02-13T10:19:03;95435.13;;;-146.70;64.12
7474;BME280;3778;42.572;23.426;2023-02-13T10:21:38;95462.22;;;-146.70;63.90
7474;BME280;3778;42.572;23.426;2023-02-13T10:24:11;95439.31;;;-146.70;64.18
7474;BME280;3778;42.572;23.426;2023-02-13T10:26:41;95437.22;;;-146.70;63.83
7474;BME280;3778;42.572;23.426;2023-02-13T10:29:16;95395.53;;;-146.70;63.43
7474;BME280;3778;42.572;23.426;2023-02-13T10:32:07;95447.63;;;-146.70;63.29
7474;BME280;3778;42.572;23.426;2023-02-13T10:34:40;95414.28;;;-146.70;63.17
7474;BME280;3778;42.572;23.426;2023-02-13T10:37:13;95430.97;;;-146.70;63.31
7474;BME280;3778;42.572;23.426;2023-02-13T10:39:43;95420.53;;;-146.70;64.11
7474;BME280;3778;42.572;23.426;2023-02-13T10:42:19;95412.22;;;-146.70;63.00
7474;BME280;3778;42.572;23.426;2023-02-13T10:44:58;95412.22;;;-146.70;61.76
7474;BME280;3778;42.572;23.426;2023-02-13T10:47:48;95374.69;;;-146.70;61.35
7474;BME280;3778;42.572;23.426;2023-02-13T10:50:24;95374.69;;;-146.70;60.80
7474;BME280;3778;42.572;23.426;2023-02-13T10:53:01;95360.09;;;-146.70;60.52
7474;BME280;3778;42.572;23.426;2023-02-13T10:56:01;95393.44;;;-146.70;60.81
7474;BME280;3778;42.572;23.426;2023-02-13T10:58:41;95345.50;;;-146.70;60.37
7474;BME280;3778;42.572;23.426;2023-02-13T11:01:16;95353.84;;;-146.70;59.41
7474;BME280;3778;42.572;23.426;2023-02-13T11:03:45;95389.28;;;-146.70;58.64
7474;BME280;3778;42.572;23.426;2023-02-13T11:06:17;95358.00;;;-146.70;58.35
7474;BME280;3778;42.572;23.426;2023-02-13T11:08:45;95291.31;;;-146.70;58.13
7474;BME280;3778;42.572;23.426;2023-02-13T11:11:29;95339.25;;;-146.70;57.83
7474;BME280;3778;42.572;23.426;2023-02-13T11:14:08;95328.84;;;-146.70;58.34
7474;BME280;3778;42.572;23.426;2023-02-13T11:16:40;95349.69;;;-146.70;58.78
7474;BME280;3778;42.572;23.426;2023-02-13T11:19:16;95333.00;;;-146.70;59.16
7474;BME280;3778;42.572;23.426;2023-02-13T11:21:45;95339.25;;;-146.70;59.15
7474;BME280;3778;42.572;23.426;2023-02-13T11:24:20;95312.16;;;-146.70;59.56
7474;BME280;3778;42.572;23.426;2023-02-13T11:26:50;95341.34;;;-146.70;58.93
7474;BME280;3778;42.572;23.426;2023-02-13T11:29:22;95274.63;;;-146.70;57.88
7474;BME280;3778;42.572;23.426;2023-02-13T11:32:14;95266.31;;;-146.70;57.41
7474;BME280;3778;42.572;23.426;2023-02-13T11:34:43;95312.16;;;-146.70;57.33
7474;BME280;3778;42.572;23.426;2023-02-13T11:37:20;95391.38;;;-146.70;57.56
7474;BME280;3778;42.572;23.426;2023-02-13T11:39:49;95282.97;;;-146.70;57.65
7474;BME280;3778;42.572;23.426;2023-02-13T11:42:20;95299.66;;;-146.70;57.70
7474;BME280;3778;42.572;23.426;2023-02-13T11:44:52;95257.97;;;-146.70;56.45
7474;BME280;3778;42.572;23.426;2023-02-13T11:47:39;95193.34;;;-146.70;55.13
7474;BME280;3778;42.572;23.426;2023-02-13T11:50:19;95262.13;;;-146.70;55.73
7474;BME280;3778;42.572;23.426;2023-02-13T11:52:56;95287.16;;;-146.70;55.67
7474;BME280;3778;42.572;23.426;2023-02-13T11:55:29;95205.84;;;-146.70;55.29
7474;BME280;3778;42.572;23.426;2023-02-13T11:57:58;95241.28;;;-146.70;54.73
7474;BME280;3778;42.572;23.426;2023-02-13T12:00:30;95228.78;;;-146.70;54.77
7474;BME280;3778;42.572;23.426;2023-02-13T12:03:02;95285.06;;;-146.70;54.73
7474;BME280;3778;42.572;23.426;2023-02-13T12:06:02;95232.97;;;-146.70;54.36
7474;BME280;3778;42.572;23.426;2023-02-13T12:08:30;95218.38;;;-146.70;54.30
7474;BME280;3778;42.572;23.426;2023-02-13T12:10:59;95185.03;;;-146.70;53.06
7474;BME280;3778;42.572;23.426;2023-02-13T12:13:31;95166.25;;;-146.70;53.21
7474;BME280;3778;42.572;23.426;2023-02-13T12:16:01;95199.59;;;-146.70;53.03
7474;BME280;3778;42.572;23.426;2023-02-13T12:18:32;95187.09;;;-146.70;53.40
7474;BME280;3778;42.572;23.426;2023-02-13T12:21:09;95197.53;;;-146.70;53.56
7474;BME280;3778;42.572;23.426;2023-02-13T12:23:45;95172.50;;;-146.70;53.22
7474;BME280;3778;42.572;23.426;2023-02-13T12:26:24;95095.41;;;-146.70;52.38
7474;BME280;3778;42.572;23.426;2023-02-13T12:29:12;95084.97;;;-146.70;50.84
7474;BME280;3778;42.572;23.426;2023-02-13T12:32:03;95043.28;;;-146.70;51.29
7474;BME280;3778;42.572;23.426;2023-02-13T12:34:47;95122.50;;;-146.70;50.91
7474;BME280;3778;42.572;23.426;2023-02-13T12:37:34;95076.63;;;-146.70;49.91
7474;BME280;3778;42.572;23.426;2023-02-13T12:40:21;95091.22;;;-146.70;49.70
7474;BME280;3778;42.572;23.426;2023-02-13T12:43:12;95014.13;;;-146.70;48.23
7474;BME280;3778;42.572;23.426;2023-02-13T12:45:46;94957.84;;;-146.70;46.64
7474;BME280;3778;42.572;23.426;2023-02-13T12:48:30;94970.34;;;-146.70;47.03
7474;BME280;3778;42.572;23.426;2023-02-13T12:51:12;94953.66;;;-146.70;46.03
7474;BME280;3778;42.572;23.426;2023-02-13T12:53:51;94918.25;;;-146.70;45.24
7474;BME280;3778;42.572;23.426;2023-02-13T12:56:40;94899.47;;;-146.70;44.56
7474;BME280;3778;42.572;23.426;2023-02-13T12:59:14;94851.56;;;-146.70;43.30
7474;BME280;3778;42.572;23.426;2023-02-13T13:01:56;94880.72;;;-146.70;44.95
7474;BME280;3778;42.572;23.426;2023-02-13T13:04:41;94920.31;;;-146.70;44.09
7474;BME280;3778;42.572;23.426;2023-02-13T13:07:24;94828.63;;;-146.70;43.31
7474;BME280;3778;42.572;23.426;2023-02-13T13:12:56;94907.81;;;-146.70;43.67
7474;BME280;3778;42.572;23.426;2023-02-13T13:15:33;94876.56;;;-146.70;43.48
7474;BME280;3778;42.572;23.426;2023-02-13T13:18:11;94914.06;;;-146.70;43.96
7474;BME280;3778;42.572;23.426;2023-02-13T13:20:57;94859.88;;;-146.70;44.43
7474;BME280;3778;42.572;23.426;2023-02-13T13:23:30;94889.06;;;-146.70;43.94